URMN

Details ICAO URMN (NAL)
Name NALCHIK
Region Russia
Timezone Europe/Moscow (UTC+3.0)
Plans Departing 36
Arriving 27
Stats Elevation 1,462 ft / 446 m (AMSL)
Location 43.512854° 43.636583°
Runways 1
Magnetic Variation 7.184° E
Sunrise 2017-12-12 04:30:35 UTC / 2017-12-12 07:30:35 Local
Sunset 2017-12-12 13:30:32 UTC / 2017-12-12 16:30:32 Local
Advertisement - Login to hide

Runways

ID Width Length Bearing (true) Bearing (mag) Surface Threshold Offset Overrun Length
06 138 ft / 42 m 7,256 ft / 2,212 m 62.40° 55.22° Asphalt 0 ft / 0 m 145 ft / 44 m
24 138 ft / 42 m 7,256 ft / 2,212 m 242.42° 235.24° Asphalt 0 ft / 0 m 160 ft / 49 m

Approach Navaids

Runway Type Ident Frequency Range Bearing (true) Bearing (mag) Slope Elevation
24 Localiser INL 110.50 MHz 18 nm / 33 km 241.33° 234.15° - 1,462 ft / 446 m (AMSL)
24 Glidescope INL 110.50 MHz 10 nm / 19 km 242.41° 235.23° 2.70° 1,462 ft / 446 m (AMSL)

Map

Weather


0- 5 10 15 20 25 30 35+ Temperature / ° C

Clouds and Precipitation
Forecast for 2017-12-12 06:00 UTC. Updated 2 hours ago

Ground ~20,000 ft ~40,000 ft Winds

METAR

URMN 120500Z 20002MPS 9999 BKN/// 02/M00 Q1025 R24/110060 NOSIG RMK QFE732

TAF

Not found

Frequencies

Tower 118.30 MHz TWR
Approach 126.90 MHz APP
Warning: Do not use this data for real-world aviation or navigation. No guarantee of current accuracy is given.